createdAt,value
2023-03-23T00:00:21.663Z,12.22
2023-03-23T00:00:55.980Z,12.22
2023-03-23T00:01:18.762Z,12.22
2023-03-23T00:01:41.252Z,12.22
2023-03-23T00:02:15.874Z,12.22
2023-03-23T00:02:49.536Z,12.22
2023-03-23T00:03:19.969Z,12.22
2023-03-23T00:03:50.109Z,12.11
2023-03-23T00:04:21.530Z,12.11
2023-03-23T00:04:58.662Z,12.11
2023-03-23T00:05:19.981Z,12.11
2023-03-23T00:05:43.108Z,12.11
2023-03-23T00:06:24.377Z,12.00
2023-03-23T00:06:46.720Z,12.00
2023-03-23T00:07:20.762Z,12.00
2023-03-23T00:07:51.957Z,12.00
2023-03-23T00:08:15.207Z,12.00
2023-03-23T00:08:37.148Z,11.88
2023-03-23T00:09:15.649Z,11.88
2023-03-23T00:09:44.735Z,11.88
2023-03-23T00:10:18.423Z,11.88
2023-03-23T00:10:48.992Z,11.88
2023-03-23T00:11:20.005Z,11.88
2023-03-23T00:11:49.484Z,11.88
2023-03-23T00:12:21.329Z,11.88
2023-03-23T00:12:56.098Z,11.88
2023-03-23T00:13:19.053Z,11.88
2023-03-23T00:13:42.132Z,12.00
2023-03-23T00:14:16.685Z,12.00
2023-03-23T00:14:47.962Z,12.00
2023-03-23T00:15:20.318Z,12.00
2023-03-23T00:15:49.446Z,12.00
2023-03-23T00:16:22.893Z,12.00
2023-03-23T00:16:56.114Z,12.00
2023-03-23T00:17:18.852Z,12.00
2023-03-23T00:17:41.529Z,12.00
2023-03-23T00:18:17.338Z,12.00
2023-03-23T00:18:48.842Z,12.00
2023-03-23T00:19:19.918Z,12.00
2023-03-23T00:19:50.593Z,12.00
2023-03-23T00:20:22.148Z,12.00
2023-03-23T00:20:56.065Z,12.00
2023-03-23T00:21:18.696Z,12.00
2023-03-23T00:21:41.120Z,12.00
2023-03-23T00:22:18.094Z,12.00
2023-03-23T00:22:48.171Z,12.00
2023-03-23T00:23:22.030Z,12.11
2023-03-23T00:23:52.197Z,12.11
2023-03-23T00:24:30.045Z,12.11
2023-03-23T00:24:52.454Z,12.11
2023-03-23T00:25:15.911Z,12.11
2023-03-23T00:25:37.819Z,12.11
2023-03-23T00:26:19.108Z,12.00
2023-03-23T00:26:48.535Z,12.11
2023-03-23T00:27:20.304Z,12.11
2023-03-23T00:27:51.957Z,12.11
2023-03-23T00:28:14.677Z,12.11
2023-03-23T00:28:36.919Z,12.11
2023-03-23T00:29:11.935Z,12.11
2023-03-23T00:29:44.121Z,12.11
2023-03-23T00:30:15.858Z,12.11
2023-03-23T00:30:47.874Z,12.22
2023-03-23T00:31:19.791Z,12.22
2023-03-23T00:31:49.253Z,12.22
2023-03-23T00:32:20.943Z,12.22
2023-03-23T00:32:56.038Z,12.22
2023-03-23T00:33:20.089Z,12.11
2023-03-23T00:33:40.897Z,12.11
2023-03-23T00:34:16.035Z,12.11
2023-03-23T00:34:48.221Z,12.11
2023-03-23T00:35:20.572Z,12.11
2023-03-23T00:35:49.507Z,12.11
2023-03-23T00:36:22.845Z,12.11
2023-03-23T00:36:55.879Z,12.11
2023-03-23T00:37:21.002Z,12.11
2023-03-23T00:37:42.078Z,12.11
2023-03-23T00:38:16.018Z,12.11
2023-03-23T00:38:47.922Z,12.11
2023-03-23T00:39:23.101Z,12.11
2023-03-23T00:39:52.010Z,12.11
2023-03-23T00:40:15.155Z,12.11
2023-03-23T00:40:37.365Z,12.11
2023-03-23T00:41:11.864Z,12.11
2023-03-23T00:41:43.869Z,12.11
2023-03-23T00:42:15.776Z,12.11
2023-03-23T00:42:48.161Z,12.11
2023-03-23T00:43:22.245Z,12.11
2023-03-23T00:43:49.252Z,12.11
2023-03-23T00:44:22.174Z,12.11
2023-03-23T00:44:56.159Z,12.11
2023-03-23T00:45:18.787Z,12.11
2023-03-23T00:45:41.425Z,12.11
2023-03-23T00:46:15.870Z,12.11
2023-03-23T00:46:49.370Z,12.11
2023-03-23T00:47:19.760Z,12.11
2023-03-23T00:47:51.866Z,12.11
2023-03-23T00:48:23.030Z,12.11
2023-03-23T00:48:56.088Z,12.11
2023-03-23T00:49:18.683Z,12.11
2023-03-23T00:49:40.990Z,12.11
2023-03-23T00:50:16.326Z,12.11
2023-03-23T00:50:48.092Z,12.11
2023-03-23T00:51:20.275Z,12.11
2023-03-23T00:51:51.919Z,12.00
2023-03-23T00:52:14.751Z,12.00
2023-03-23T00:52:37.003Z,12.00
2023-03-23T00:53:12.025Z,12.00
2023-03-23T00:53:43.884Z,12.00
2023-03-23T00:54:16.314Z,12.00
2023-03-23T00:54:47.799Z,12.00
2023-03-23T00:55:20.054Z,12.00
2023-03-23T00:55:52.013Z,12.00
2023-03-23T00:56:22.480Z,12.00
2023-03-23T00:56:56.131Z,12.00
2023-03-23T00:57:18.659Z,12.00
2023-03-23T00:57:40.981Z,12.00
2023-03-23T00:58:16.145Z,12.00
2023-03-23T00:58:47.764Z,12.00
2023-03-23T00:59:19.898Z,12.00
2023-03-23T00:59:49.565Z,12.00
2023-03-23T01:00:25.074Z,12.00
2023-03-23T01:00:55.876Z,12.00
2023-03-23T01:01:19.169Z,12.00
2023-03-23T01:01:41.536Z,12.00
2023-03-23T01:02:15.787Z,12.00
2023-03-23T01:02:47.880Z,12.00
2023-03-23T01:03:19.861Z,12.00
2023-03-23T01:03:49.246Z,12.00
2023-03-23T01:04:21.069Z,12.00
2023-03-23T01:04:55.874Z,12.00
2023-03-23T01:05:18.705Z,12.00
2023-03-23T01:05:41.289Z,12.00
2023-03-23T01:06:15.790Z,12.00
2023-03-23T01:06:48.023Z,12.00
2023-03-23T01:07:19.946Z,12.00
2023-03-23T01:07:49.347Z,12.00
2023-03-23T01:08:20.934Z,12.00
2023-03-23T01:08:55.948Z,12.00
2023-03-23T01:09:18.695Z,12.00
2023-03-23T01:09:41.410Z,12.00
2023-03-23T01:10:16.242Z,12.11
2023-03-23T01:10:47.983Z,12.11
2023-03-23T01:11:19.835Z,12.11
2023-03-23T01:11:51.734Z,12.11
2023-03-23T01:12:21.009Z,12.11
2023-03-23T01:12:55.879Z,12.11
2023-03-23T01:13:18.802Z,12.11
2023-03-23T01:13:41.315Z,12.11
2023-03-23T01:14:16.129Z,12.11
2023-03-23T01:14:48.284Z,12.11
2023-03-23T01:15:20.249Z,12.22
2023-03-23T01:15:51.724Z,12.22
2023-03-23T01:16:15.247Z,12.22
2023-03-23T01:16:37.341Z,12.22
2023-03-23T01:17:11.848Z,12.22
2023-03-23T01:17:44.149Z,12.22
2023-03-23T01:18:15.807Z,12.22
2023-03-23T01:18:48.080Z,12.22
2023-03-23T01:19:19.773Z,12.11
2023-03-23T01:19:49.538Z,12.11
2023-03-23T01:20:20.868Z,12.11
2023-03-23T01:20:55.937Z,12.11
2023-03-23T01:21:18.590Z,12.11
2023-03-23T01:21:40.967Z,12.11
2023-03-23T01:22:15.761Z,12.11
2023-03-23T01:22:48.105Z,12.11
2023-03-23T01:23:20.011Z,12.11
2023-03-23T01:23:49.260Z,12.11
2023-03-23T01:24:20.925Z,12.11
2023-03-23T01:24:56.201Z,12.11
2023-03-23T01:25:19.524Z,12.11
2023-03-23T01:25:42.666Z,12.11
2023-03-23T01:26:16.124Z,12.11
2023-03-23T01:26:47.914Z,12.11
2023-03-23T01:27:20.125Z,12.11
2023-03-23T01:27:49.404Z,12.11
2023-03-23T01:28:21.198Z,12.11
2023-03-23T01:28:55.793Z,12.11
2023-03-23T01:29:18.435Z,12.11
2023-03-23T01:29:40.735Z,12.11
2023-03-23T01:30:15.927Z,12.11
2023-03-23T01:30:47.762Z,12.00
2023-03-23T01:31:19.891Z,12.00
2023-03-23T01:31:49.337Z,12.00
2023-03-23T01:32:21.169Z,12.00
2023-03-23T01:32:56.080Z,12.00
2023-03-23T01:33:18.538Z,12.00
2023-03-23T01:33:40.844Z,12.00
2023-03-23T01:34:15.950Z,12.00
2023-03-23T01:34:48.020Z,12.00
2023-03-23T01:35:19.829Z,12.00
2023-03-23T01:35:49.669Z,12.00
2023-03-23T01:36:21.011Z,12.00
2023-03-23T01:36:55.850Z,12.00
2023-03-23T01:37:19.126Z,12.00
2023-03-23T01:37:41.143Z,12.00
2023-03-23T01:38:16.120Z,12.00
2023-03-23T01:38:47.879Z,12.00
2023-03-23T01:39:19.695Z,11.88
2023-03-23T01:39:49.465Z,11.88
2023-03-23T01:40:21.129Z,11.88
2023-03-23T01:40:55.915Z,11.88
2023-03-23T01:41:19.696Z,11.88
2023-03-23T01:41:42.140Z,11.88
2023-03-23T01:42:15.765Z,11.88
2023-03-23T01:42:48.249Z,11.88
2023-03-23T01:43:20.181Z,11.88
2023-03-23T01:43:51.739Z,11.88
2023-03-23T01:44:29.154Z,11.88
2023-03-23T01:44:51.587Z,11.88
2023-03-23T01:45:21.230Z,11.88
2023-03-23T01:45:43.706Z,11.88
2023-03-23T01:46:15.941Z,11.88
2023-03-23T01:46:48.085Z,11.88
2023-03-23T01:47:19.831Z,11.88
2023-03-23T01:47:49.558Z,11.88
2023-03-23T01:48:20.920Z,11.88
2023-03-23T01:48:56.091Z,11.77
2023-03-23T01:49:18.961Z,11.77
2023-03-23T01:49:41.241Z,11.77
2023-03-23T01:50:15.982Z,11.77
2023-03-23T01:50:48.132Z,11.77
2023-03-23T01:51:20.148Z,11.77
2023-03-23T01:51:51.863Z,11.77
2023-03-23T01:52:23.874Z,11.77
2023-03-23T01:52:56.149Z,11.77
2023-03-23T01:53:18.620Z,11.77
2023-03-23T01:53:41.402Z,11.77
2023-03-23T01:54:15.906Z,11.77
2023-03-23T01:54:47.732Z,11.77
2023-03-23T01:55:19.872Z,11.72
2023-03-23T01:55:49.436Z,11.72
2023-03-23T01:56:22.513Z,11.72
2023-03-23T01:56:55.769Z,11.72
2023-03-23T01:57:18.886Z,11.72
2023-03-23T01:57:41.167Z,11.72
2023-03-23T01:58:16.090Z,11.72
2023-03-23T01:58:47.744Z,11.72
2023-03-23T01:59:19.831Z,11.72
2023-03-23T01:59:49.367Z,11.77
2023-03-23T02:00:19.111Z,11.77
2023-03-23T02:00:50.684Z,11.77
2023-03-23T02:01:21.580Z,11.77
2023-03-23T02:02:00.125Z,11.77
2023-03-23T02:02:23.061Z,11.77
2023-03-23T02:02:45.371Z,11.77
2023-03-23T02:03:19.716Z,11.77
2023-03-23T02:03:49.426Z,11.77
2023-03-23T02:04:21.418Z,11.77
2023-03-23T02:04:55.989Z,11.77
2023-03-23T02:05:18.851Z,11.77
2023-03-23T02:05:41.074Z,11.72
2023-03-23T02:06:15.961Z,11.72
2023-03-23T02:06:47.940Z,11.72
2023-03-23T02:07:19.795Z,11.72
2023-03-23T02:07:49.309Z,11.72
2023-03-23T02:08:20.982Z,11.72
2023-03-23T02:08:56.004Z,11.72
2023-03-23T02:09:18.979Z,11.72
2023-03-23T02:09:41.719Z,11.72
2023-03-23T02:10:16.026Z,11.72
2023-03-23T02:10:51.471Z,11.72
2023-03-23T02:11:22.053Z,11.72
2023-03-23T02:11:49.416Z,11.61
2023-03-23T02:12:21.206Z,11.61
2023-03-23T02:12:55.897Z,11.61
2023-03-23T02:13:19.079Z,11.61
2023-03-23T02:13:41.216Z,11.61
2023-03-23T02:14:15.889Z,11.61
2023-03-23T02:14:47.730Z,11.61
2023-03-23T02:15:20.061Z,11.61
2023-03-23T02:15:51.717Z,11.61
2023-03-23T02:16:15.411Z,11.61
2023-03-23T02:16:38.767Z,11.61
2023-03-23T02:17:11.849Z,11.61
2023-03-23T02:17:43.754Z,11.61
2023-03-23T02:18:15.733Z,11.61
2023-03-23T02:18:48.103Z,11.61
2023-03-23T02:19:19.822Z,11.61
2023-03-23T02:19:49.686Z,11.72
2023-03-23T02:20:21.258Z,11.72
2023-03-23T02:20:55.841Z,11.72
2023-03-23T02:21:19.583Z,11.72
2023-03-23T02:21:41.943Z,11.72
2023-03-23T02:22:15.733Z,11.72
2023-03-23T02:22:48.197Z,11.72
2023-03-23T02:23:19.815Z,11.72
2023-03-23T02:23:52.552Z,11.61
2023-03-23T02:24:14.894Z,11.61
2023-03-23T02:24:39.156Z,11.61
2023-03-23T02:25:13.235Z,11.61
2023-03-23T02:25:49.357Z,11.61
2023-03-23T02:26:16.119Z,11.72
2023-03-23T02:26:47.831Z,11.72
2023-03-23T02:27:19.903Z,11.72
2023-03-23T02:27:49.261Z,11.61
2023-03-23T02:28:21.236Z,11.61
2023-03-23T02:28:55.860Z,11.61
2023-03-23T02:29:20.161Z,11.61
2023-03-23T02:29:40.897Z,11.61
2023-03-23T02:30:16.010Z,11.61
2023-03-23T02:30:47.715Z,11.61
2023-03-23T02:31:19.852Z,11.61
2023-03-23T02:31:49.299Z,11.61
2023-03-23T02:32:21.208Z,11.61
2023-03-23T02:32:55.870Z,11.61
2023-03-23T02:33:18.630Z,11.61
2023-03-23T02:33:40.971Z,11.50
2023-03-23T02:34:15.873Z,11.50
2023-03-23T02:34:47.924Z,11.50
2023-03-23T02:35:19.858Z,11.38
2023-03-23T02:35:49.334Z,11.38
2023-03-23T02:36:21.286Z,11.38
2023-03-23T02:36:56.088Z,11.38
2023-03-23T02:37:18.933Z,11.38
2023-03-23T02:37:41.114Z,11.50
2023-03-23T02:38:15.821Z,11.50
2023-03-23T02:38:47.949Z,11.50
2023-03-23T02:39:25.408Z,11.38
2023-03-23T02:39:49.392Z,11.38
2023-03-23T02:40:21.040Z,11.38
2023-03-23T02:40:55.857Z,11.38
2023-03-23T02:41:18.765Z,11.38
2023-03-23T02:41:41.475Z,11.27
2023-03-23T02:42:16.175Z,11.27
2023-03-23T02:42:48.338Z,11.27
2023-03-23T02:43:19.700Z,11.27
2023-03-23T02:43:49.439Z,11.27
2023-03-23T02:44:20.932Z,11.27
2023-03-23T02:44:57.422Z,11.27
2023-03-23T02:45:20.048Z,11.27
2023-03-23T02:45:42.270Z,11.27
2023-03-23T02:46:15.811Z,11.27
2023-03-23T02:46:47.753Z,11.27
2023-03-23T02:47:19.822Z,11.27
2023-03-23T02:47:51.967Z,11.27
2023-03-23T02:48:21.079Z,11.27
2023-03-23T02:48:56.015Z,11.22
2023-03-23T02:49:18.575Z,11.22
2023-03-23T02:49:42.904Z,11.22
2023-03-23T02:50:15.690Z,11.22
2023-03-23T02:50:47.951Z,11.27
2023-03-23T02:51:19.924Z,11.27
2023-03-23T02:51:49.525Z,11.27
2023-03-23T02:52:20.956Z,11.27
2023-03-23T02:52:55.885Z,11.27
2023-03-23T02:53:18.681Z,11.27
2023-03-23T02:53:43.172Z,11.27
2023-03-23T02:54:15.684Z,11.27
2023-03-23T02:54:47.840Z,11.38
2023-03-23T02:55:19.666Z,11.38
2023-03-23T02:55:49.311Z,11.38
2023-03-23T02:56:22.464Z,11.50
2023-03-23T02:56:55.788Z,11.50
2023-03-23T02:57:18.815Z,11.50
2023-03-23T02:57:43.777Z,11.50
2023-03-23T02:58:15.816Z,11.38
2023-03-23T02:58:48.602Z,11.38
2023-03-23T02:59:19.762Z,11.38
2023-03-23T02:59:51.898Z,11.38
2023-03-23T03:00:23.693Z,11.38
2023-03-23T03:00:56.146Z,11.38
2023-03-23T03:01:18.764Z,11.38
2023-03-23T03:01:44.487Z,11.38
2023-03-23T03:02:16.259Z,11.38
2023-03-23T03:02:48.516Z,11.38
2023-03-23T03:03:19.772Z,11.38
2023-03-23T03:03:49.792Z,11.38
2023-03-23T03:04:21.394Z,11.38
2023-03-23T03:04:56.047Z,11.38
2023-03-23T03:05:18.802Z,11.38
2023-03-23T03:05:41.349Z,11.38
2023-03-23T03:06:15.967Z,11.38
2023-03-23T03:06:47.909Z,11.38
2023-03-23T03:07:19.980Z,11.38
2023-03-23T03:07:49.316Z,11.38
2023-03-23T03:08:21.682Z,11.38
2023-03-23T03:08:56.494Z,11.38
2023-03-23T03:09:19.200Z,11.38
2023-03-23T03:09:41.681Z,11.38
2023-03-23T03:10:17.428Z,11.38
2023-03-23T03:10:50.532Z,11.38
2023-03-23T03:11:20.857Z,11.38
2023-03-23T03:11:51.770Z,11.38
2023-03-23T03:12:14.960Z,11.38
2023-03-23T03:12:37.331Z,11.38
2023-03-23T03:13:13.970Z,11.38
2023-03-23T03:13:46.530Z,11.38
2023-03-23T03:14:16.777Z,11.38
2023-03-23T03:14:48.406Z,11.38
2023-03-23T03:15:20.721Z,11.38
2023-03-23T03:15:52.061Z,11.38
2023-03-23T03:16:25.332Z,11.38
2023-03-23T03:16:56.169Z,11.38
2023-03-23T03:17:19.289Z,11.38
2023-03-23T03:17:41.800Z,11.38
2023-03-23T03:18:15.994Z,11.38
2023-03-23T03:18:48.252Z,11.27
2023-03-23T03:19:19.822Z,11.27
2023-03-23T03:19:50.962Z,11.27
2023-03-23T03:20:21.232Z,11.27
2023-03-23T03:20:57.121Z,11.27
2023-03-23T03:21:19.764Z,11.27
2023-03-23T03:21:42.548Z,11.27
2023-03-23T03:22:15.945Z,11.27
2023-03-23T03:22:48.742Z,11.27
2023-03-23T03:23:22.026Z,11.27
2023-03-23T03:23:51.734Z,11.22
2023-03-23T03:24:29.342Z,11.22
2023-03-23T03:24:51.856Z,11.22
2023-03-23T03:25:17.762Z,11.22
2023-03-23T03:25:59.970Z,11.22
2023-03-23T03:26:22.992Z,11.22
2023-03-23T03:26:45.331Z,11.22
2023-03-23T03:27:19.799Z,11.22
2023-03-23T03:27:49.448Z,11.22
2023-03-23T03:28:21.148Z,11.22
2023-03-23T03:28:55.992Z,11.22
2023-03-23T03:29:19.500Z,11.22
2023-03-23T03:29:41.664Z,11.22
2023-03-23T03:30:15.857Z,11.22
2023-03-23T03:30:50.106Z,11.22
2023-03-23T03:31:19.754Z,11.22
2023-03-23T03:31:50.172Z,11.22
2023-03-23T03:32:21.384Z,11.22
2023-03-23T03:32:56.023Z,11.22
2023-03-23T03:33:19.134Z,11.22
2023-03-23T03:33:41.527Z,11.22
2023-03-23T03:34:15.799Z,11.22
2023-03-23T03:34:51.480Z,11.11
2023-03-23T03:35:19.872Z,11.11
2023-03-23T03:35:56.317Z,11.11
2023-03-23T03:36:23.999Z,11.11
2023-03-23T03:36:51.542Z,11.11
2023-03-23T03:37:21.911Z,11.11
2023-03-23T03:37:59.986Z,11.11
2023-03-23T03:38:23.563Z,11.11
2023-03-23T03:38:45.821Z,11.11
2023-03-23T03:39:19.710Z,11.11
2023-03-23T03:39:52.120Z,11.11
2023-03-23T03:40:29.243Z,11.11
2023-03-23T03:40:52.010Z,11.11
2023-03-23T03:41:21.027Z,11.11
2023-03-23T03:41:43.481Z,11.11
2023-03-23T03:42:15.695Z,11.11
2023-03-23T03:42:50.267Z,11.11
2023-03-23T03:43:20.115Z,11.11
2023-03-23T03:43:49.341Z,11.11
2023-03-23T03:44:21.128Z,11.11
2023-03-23T03:44:59.140Z,11.11
2023-03-23T03:45:24.777Z,11.22
2023-03-23T03:46:00.320Z,11.22
2023-03-23T03:46:22.837Z,11.22
2023-03-23T03:46:53.520Z,11.22
2023-03-23T03:47:14.850Z,11.22
2023-03-23T03:47:49.505Z,11.22
2023-03-23T03:48:21.043Z,11.22
2023-03-23T03:48:55.654Z,11.22
2023-03-23T03:49:22.417Z,11.11
2023-03-23T03:49:42.109Z,11.11
2023-03-23T03:50:15.966Z,11.11
2023-03-23T03:50:48.026Z,11.11
2023-03-23T03:51:19.873Z,11.11
2023-03-23T03:51:49.257Z,11.11
2023-03-23T03:52:21.076Z,11.11
2023-03-23T03:52:55.574Z,11.11
2023-03-23T03:53:18.817Z,11.11
2023-03-23T03:53:41.184Z,11.11
2023-03-23T03:54:15.765Z,11.22
2023-03-23T03:54:48.216Z,11.22
2023-03-23T03:55:19.756Z,11.22
2023-03-23T03:55:49.396Z,11.22
2023-03-23T03:56:24.018Z,11.22
2023-03-23T03:56:56.315Z,11.22
2023-03-23T03:57:19.090Z,11.22
2023-03-23T03:57:41.536Z,11.22
2023-03-23T03:58:15.576Z,11.22
2023-03-23T03:58:47.755Z,11.11
2023-03-23T03:59:21.750Z,11.11
2023-03-23T03:59:49.229Z,11.11
2023-03-23T04:00:23.772Z,11.11
2023-03-23T04:00:55.842Z,11.11
2023-03-23T04:01:18.861Z,11.11
2023-03-23T04:01:41.189Z,11.11
2023-03-23T04:02:15.553Z,11.11
2023-03-23T04:02:47.590Z,11.11
2023-03-23T04:03:19.719Z,11.11
2023-03-23T04:03:49.589Z,11.11
2023-03-23T04:04:21.268Z,11.11
2023-03-23T04:04:56.625Z,11.11
2023-03-23T04:05:18.876Z,11.11
2023-03-23T04:05:41.338Z,11.11
2023-03-23T04:06:15.860Z,11.11
2023-03-23T04:06:47.755Z,11.11
2023-03-23T04:07:19.835Z,11.11
2023-03-23T04:07:49.389Z,11.11
2023-03-23T04:08:21.016Z,11.11
2023-03-23T04:09:08.246Z,11.11
2023-03-23T04:09:18.414Z,11.11
2023-03-23T04:09:40.923Z,11.11
2023-03-23T04:10:15.905Z,11.11
2023-03-23T04:10:47.717Z,11.11
2023-03-23T04:11:33.148Z,11.00
2023-03-23T04:11:51.677Z,11.00
2023-03-23T04:12:23.729Z,11.00
2023-03-23T04:12:58.524Z,11.00
2023-03-23T04:13:19.252Z,11.00
2023-03-23T04:13:41.599Z,11.00
2023-03-23T04:14:15.818Z,11.00
2023-03-23T04:14:47.711Z,11.00
2023-03-23T04:15:19.931Z,11.00
2023-03-23T04:16:10.129Z,11.00
2023-03-23T04:16:23.896Z,11.00
2023-03-23T04:16:55.734Z,11.00
2023-03-23T04:17:19.165Z,11.00
2023-03-23T04:17:41.573Z,11.00
2023-03-23T04:18:16.096Z,11.11
2023-03-23T04:18:47.768Z,11.11
2023-03-23T04:19:19.960Z,11.11
2023-03-23T04:19:49.660Z,11.11
2023-03-23T04:20:31.626Z,11.11
2023-03-23T04:20:55.958Z,11.11
2023-03-23T04:21:18.490Z,11.11
2023-03-23T04:21:43.501Z,11.11
2023-03-23T04:22:15.697Z,11.11
2023-03-23T04:22:47.694Z,11.00
2023-03-23T04:23:20.122Z,11.00
2023-03-23T04:23:49.399Z,11.00
2023-03-23T04:24:56.243Z,11.00
2023-03-23T04:25:12.420Z,11.00
2023-03-23T04:25:46.367Z,11.00
2023-03-23T04:26:16.346Z,11.00
2023-03-23T04:26:48.528Z,11.00
2023-03-23T04:27:19.761Z,11.00
2023-03-23T04:27:50.035Z,11.00
2023-03-23T04:28:23.840Z,11.00
2023-03-23T04:28:56.314Z,11.11
2023-03-23T04:29:18.934Z,11.11
2023-03-23T04:29:42.006Z,11.11
2023-03-23T04:30:19.556Z,11.11
2023-03-23T04:30:41.892Z,11.11
2023-03-23T04:31:20.246Z,11.11
2023-03-23T04:31:51.664Z,11.11
2023-03-23T04:32:23.576Z,11.11
2023-03-23T04:32:55.596Z,11.11
2023-03-23T04:33:18.423Z,11.11
2023-03-23T04:33:57.655Z,11.11
2023-03-23T04:34:15.660Z,11.11
2023-03-23T04:34:47.891Z,11.11
2023-03-23T04:35:19.590Z,11.11
2023-03-23T04:35:49.492Z,11.11
2023-03-23T04:36:21.264Z,11.11
2023-03-23T04:36:56.178Z,11.22
2023-03-23T04:37:19.689Z,11.22
2023-03-23T04:37:42.010Z,11.22
2023-03-23T04:38:15.770Z,11.22
2023-03-23T04:38:47.651Z,11.11
2023-03-23T04:39:20.030Z,11.11
2023-03-23T04:39:49.538Z,11.11
2023-03-23T04:40:23.752Z,11.11
2023-03-23T04:40:55.618Z,11.22
2023-03-23T04:41:18.306Z,11.22
2023-03-23T04:41:40.612Z,11.22
2023-03-23T04:42:15.682Z,11.22
2023-03-23T04:42:47.660Z,11.22
2023-03-23T04:43:19.732Z,11.22
2023-03-23T04:43:49.363Z,11.22
2023-03-23T04:44:23.834Z,11.22
2023-03-23T04:44:57.098Z,11.22
2023-03-23T04:45:19.653Z,11.22
2023-03-23T04:45:42.240Z,11.22
2023-03-23T04:46:16.154Z,11.22
2023-03-23T04:46:47.681Z,11.22
2023-03-23T04:47:19.567Z,11.22
2023-03-23T04:47:49.344Z,11.22
2023-03-23T04:48:23.571Z,11.22
2023-03-23T04:48:55.816Z,11.22
2023-03-23T04:49:18.728Z,11.22
2023-03-23T04:49:41.089Z,11.22
2023-03-23T04:50:15.705Z,11.22
2023-03-23T04:50:48.200Z,11.22
2023-03-23T04:51:19.641Z,11.22
2023-03-23T04:51:49.262Z,11.11
2023-03-23T04:52:23.510Z,11.22
2023-03-23T04:52:55.709Z,11.11
2023-03-23T04:53:18.529Z,11.11
2023-03-23T04:53:40.828Z,11.11
2023-03-23T04:54:15.692Z,11.22
2023-03-23T04:54:49.145Z,11.22
2023-03-23T04:55:19.775Z,11.22
2023-03-23T04:55:51.614Z,11.22
2023-03-23T04:56:24.055Z,11.22
2023-03-23T04:56:55.801Z,11.22
2023-03-23T04:57:18.393Z,11.22
2023-03-23T04:57:40.752Z,11.22
2023-03-23T04:58:15.754Z,11.22
2023-03-23T04:58:47.687Z,11.22
2023-03-23T04:59:19.662Z,11.11
2023-03-23T04:59:49.450Z,11.11
2023-03-23T05:00:24.091Z,11.11
2023-03-23T05:00:56.011Z,11.11
2023-03-23T05:01:19.488Z,11.11
2023-03-23T05:01:41.933Z,11.22
2023-03-23T05:02:15.812Z,11.22
2023-03-23T05:02:47.578Z,11.22
2023-03-23T05:03:19.570Z,11.22
2023-03-23T05:03:49.235Z,11.22
2023-03-23T05:04:23.563Z,11.22
2023-03-23T05:04:57.807Z,11.22
2023-03-23T05:05:18.482Z,11.22
2023-03-23T05:05:41.204Z,11.22
2023-03-23T05:06:15.667Z,11.27
2023-03-23T05:06:47.694Z,11.27
2023-03-23T05:07:19.842Z,11.27
2023-03-23T05:07:51.729Z,11.27
2023-03-23T05:08:23.567Z,11.27
2023-03-23T05:08:55.527Z,11.27
2023-03-23T05:09:18.538Z,11.27
2023-03-23T05:09:40.953Z,11.27
2023-03-23T05:10:15.753Z,11.27
2023-03-23T05:10:47.808Z,11.27
2023-03-23T05:11:19.755Z,11.27
2023-03-23T05:11:51.881Z,11.27
2023-03-23T05:12:29.480Z,11.22
2023-03-23T05:12:52.248Z,11.22
2023-03-23T05:13:21.381Z,11.22
2023-03-23T05:13:59.690Z,11.22
2023-03-23T05:14:22.567Z,11.22
2023-03-23T05:14:44.903Z,11.22
2023-03-23T05:15:19.969Z,11.22
2023-03-23T05:15:50.549Z,11.22
2023-03-23T05:16:23.709Z,11.22
2023-03-23T05:16:55.722Z,11.22
2023-03-23T05:17:18.473Z,11.27
2023-03-23T05:17:41.051Z,11.27
2023-03-23T05:18:15.810Z,11.27
2023-03-23T05:18:47.768Z,11.27
2023-03-23T05:19:19.666Z,11.27
2023-03-23T05:19:51.891Z,11.27
2023-03-23T05:20:14.826Z,11.27
2023-03-23T05:20:37.767Z,11.27
2023-03-23T05:21:12.408Z,11.27
2023-03-23T05:21:43.660Z,11.27
2023-03-23T05:22:15.704Z,11.27
2023-03-23T05:22:48.060Z,11.27
2023-03-23T05:23:19.994Z,11.27
2023-03-23T05:23:49.345Z,11.27
2023-03-23T05:24:23.640Z,11.27
2023-03-23T05:24:55.585Z,11.27
2023-03-23T05:25:18.447Z,11.27
2023-03-23T05:25:41.022Z,11.22
2023-03-23T05:26:17.214Z,11.22
2023-03-23T05:26:47.607Z,11.22
2023-03-23T05:27:19.973Z,11.22
2023-03-23T05:27:51.858Z,11.22
2023-03-23T05:28:23.785Z,11.22
2023-03-23T05:28:55.585Z,11.22
2023-03-23T05:29:18.301Z,11.22
2023-03-23T05:29:40.771Z,11.27
2023-03-23T05:30:16.136Z,11.27
2023-03-23T05:30:49.351Z,11.22
2023-03-23T05:31:19.722Z,11.22
2023-03-23T05:31:51.682Z,11.22
2023-03-23T05:32:23.733Z,11.22
2023-03-23T05:32:55.755Z,11.22
2023-03-23T05:33:18.864Z,11.22
2023-03-23T05:33:41.219Z,11.22
2023-03-23T05:34:15.704Z,11.22
2023-03-23T05:34:47.819Z,11.22
2023-03-23T05:35:19.592Z,11.22
2023-03-23T05:35:49.501Z,11.22
2023-03-23T05:36:23.929Z,11.22
2023-03-23T05:36:55.749Z,11.27
2023-03-23T05:37:18.663Z,11.27
2023-03-23T05:37:40.914Z,11.27
2023-03-23T05:38:15.755Z,11.22
2023-03-23T05:38:47.598Z,11.22
2023-03-23T05:39:19.773Z,11.22
2023-03-23T05:39:49.451Z,11.22
2023-03-23T05:40:23.726Z,11.22
2023-03-23T05:40:55.747Z,11.22
2023-03-23T05:41:18.750Z,11.22
2023-03-23T05:41:40.890Z,11.22
2023-03-23T05:42:15.951Z,11.22
2023-03-23T05:42:47.853Z,11.22
2023-03-23T05:43:19.881Z,11.22
2023-03-23T05:43:49.489Z,11.22
2023-03-23T05:44:23.688Z,11.22
2023-03-23T05:44:57.184Z,11.27
2023-03-23T05:45:18.521Z,11.27
2023-03-23T05:45:41.007Z,11.27
2023-03-23T05:46:15.970Z,11.27
2023-03-23T05:46:47.626Z,11.27
2023-03-23T05:47:19.593Z,11.27
2023-03-23T05:47:49.368Z,11.27
2023-03-23T05:48:23.609Z,11.22
2023-03-23T05:48:55.524Z,11.22
2023-03-23T05:49:18.822Z,11.22
2023-03-23T05:49:40.844Z,11.22
2023-03-23T05:50:15.681Z,11.22
2023-03-23T05:50:47.782Z,11.22
2023-03-23T05:51:19.779Z,11.22
2023-03-23T05:51:49.453Z,11.27
2023-03-23T05:52:23.806Z,11.27
2023-03-23T05:52:55.703Z,11.27
2023-03-23T05:53:18.431Z,11.27
2023-03-23T05:53:40.737Z,11.27
2023-03-23T05:54:15.812Z,11.27
2023-03-23T05:54:49.237Z,11.27
2023-03-23T05:55:19.599Z,11.27
2023-03-23T05:55:49.523Z,11.38
2023-03-23T05:56:23.829Z,11.38
2023-03-23T05:56:55.658Z,11.38
2023-03-23T05:57:18.820Z,11.38
2023-03-23T05:57:41.211Z,11.50
2023-03-23T05:58:16.046Z,11.50
2023-03-23T05:58:47.850Z,11.50
2023-03-23T05:59:19.852Z,11.50
2023-03-23T05:59:49.352Z,11.50
2023-03-23T06:00:23.983Z,11.50
2023-03-23T06:00:55.568Z,11.50
2023-03-23T06:01:18.800Z,11.50
2023-03-23T06:01:40.701Z,11.50
2023-03-23T06:02:16.934Z,11.50
2023-03-23T06:02:47.782Z,11.50
2023-03-23T06:03:19.932Z,11.50
2023-03-23T06:03:49.428Z,11.50
2023-03-23T06:04:23.924Z,11.50
2023-03-23T06:04:55.685Z,11.50
2023-03-23T06:05:18.714Z,11.50
2023-03-23T06:05:41.135Z,11.50
2023-03-23T06:06:18.135Z,11.50
2023-03-23T06:06:48.044Z,11.50
2023-03-23T06:07:19.900Z,11.61
2023-03-23T06:07:49.598Z,11.61
2023-03-23T06:08:23.646Z,11.61
2023-03-23T06:08:55.792Z,11.61
2023-03-23T06:09:19.357Z,11.61
2023-03-23T06:09:41.664Z,11.61
2023-03-23T06:10:18.754Z,11.61
2023-03-23T06:10:47.747Z,11.61
2023-03-23T06:11:19.686Z,11.61
2023-03-23T06:11:49.472Z,11.61
2023-03-23T06:12:23.865Z,11.61
2023-03-23T06:12:56.058Z,11.61
2023-03-23T06:13:19.468Z,11.61
2023-03-23T06:13:41.501Z,11.61
2023-03-23T06:14:15.798Z,11.61
2023-03-23T06:14:47.603Z,11.61
2023-03-23T06:15:19.894Z,11.61
2023-03-23T06:15:49.692Z,11.61
2023-03-23T06:16:23.854Z,11.61
2023-03-23T06:16:55.903Z,11.72
2023-03-23T06:17:20.937Z,11.72
2023-03-23T06:17:41.278Z,11.72
2023-03-23T06:18:15.696Z,11.72
2023-03-23T06:18:47.552Z,11.61
2023-03-23T06:19:20.957Z,11.61
2023-03-23T06:19:49.792Z,11.61
2023-03-23T06:20:24.176Z,11.61
2023-03-23T06:20:55.635Z,11.72
2023-03-23T06:21:21.418Z,11.72
2023-03-23T06:21:40.776Z,11.72
2023-03-23T06:22:16.026Z,11.72
2023-03-23T06:22:49.292Z,11.72
2023-03-23T06:23:13.453Z,11.72
2023-03-23T06:23:50.178Z,11.72
2023-03-23T06:24:23.728Z,11.72
2023-03-23T06:24:55.734Z,11.72
2023-03-23T06:25:18.343Z,11.72
2023-03-23T06:25:41.361Z,11.72
2023-03-23T06:26:17.087Z,11.61
2023-03-23T06:26:47.732Z,11.61